Saline City, Indiana
Current Conditions -  °F | °C
As of 4:53 AM on Monday 22 Dec 2014 (Local Time) from KHUF Reporting Station
Overcast Overcast  
Wind Chill: 26°   Ceiling: 6500
Heat Index: 32°   Visibility: 10mi
Dew Point: 28°   Wind: 6mph
Humidity: 85%   Direction: 100°E
Pressure: 29.97"   Gusts: NA
Location:  39.3787°N, 87.0992°W
Report Text: KHUF 220953Z 10005KT 10SM OVC065 00/M02 A2997 RMK AO2 SLP152 T00001022
Loading
Personal Weather Stations






























Interactive Weather Map New forecast layout! Learn more

10-Day Weather Forecast

Advertisements
Track Severe Weather on mobile